Hlavní strana
METAR-TAF:

METAR-TAF

Letiště :

Krasnodar, Rusko

zeměpisná šířka: 45-02N, zeměpisná délka: 039-09E, výška: 33 m

Aktuální stav počasí

Zpráva byla vytvořena před 19 minutami, v 22:00 UTC
Severoseverovýchodní vítr 6 kt, proměnlivý mezi severoseverozápadním a severovýchodním
Teplota 2°C
Vlhkost vzduchu 87%
Tlak 1015 hPa
Viditelnost 10 km a více
Žádná oblačnost pod 1500 m, nevyskytují se cumulonimby.

METAR: URKK 252200Z 03003MPS 340V050 CAVOK 02/M00 Q1015 R23L/CLRD70 TEMPO 1000 BR SCT004 RMK QFE758

Čas: 01:19 (22:19 UTC)

Předpověď počasí

Zpráva byla vytvořena před 2 hodinami a 24 minutami, v 19:55 UTC
Předpověď platná od 25 v 21 UTC do 26 v 21 UTC
Severozápadní vítr 6 kt s nárazy do 16 kt
Viditelnost 10 km a více
Polojasno ve výšce 3000 ft
Dočasný
od 25 v 21 UTC do 26 v 06 UTC
Viditelnost: 3100 m
Oblačno až skoro zataženo ve výšce 1100 ft
kouřmo

TAF: URKK 251955Z 2521/2621 31003G08MPS 9999 SCT030 TEMPO 2521/2606 3100 BR BKN011

Stav a předpovědi počasí z více než 4 000 letišť (zprávy METAR a TAF).

Červené a žluté tečky na mapě představují dostupné meteorologické stanice.

Když kurzor umístíte na tečku, zobrazí se název stanice.

Pak kliknutím zobrazíte stav a předpověď počasí.

Chcete-li změnit mapu, kliknutím na zelené tlačítko se znaménkem +mapu přiblížíte, kliknutím na zelené tlačítko se znaménkem – mapu oddálíte a kliknutím na zelené šipky přejdete na sousední mapy.


METAR-TAF: